Terminal Aerodrome Forecast
Issued by NWS Albany, NY

Home | Current Version | Previous Version | Text Only | Print | Product List | Glossary On
Versions: 1 2 3 4 5 6 7 8 9 10 11 12 13 14 15 16 17 18 19 20 21 22 23 24 25 26 27 28
000
FTUS41 KALY 182320
TAFALB
TAF
KALB 182320Z 1900/1924 17013KT P6SM OVC013
      TEMPO 1902/1904 OVC009
     FM190400 18013KT P6SM OVC010 WS020/22045KT
      TEMPO 1904/1908 OVC008
     FM191100 18013KT P6SM OVC025
     FM191500 18015G25KT P6SM SCT025 BKN070
     FM192200 20009KT P6SM VCSH SCT025 BKN050=

USA.gov is the U.S. government's official web portal to all federal, state and local government web resources and services.